Time;durP1;ratioP1;P1;durP2;ratioP2;P2;SDS_P1;SDS_P2;PMS_P1;PMS_P2;Temp;Humidity;BMP_temperature;BMP_pressure;BME280_temperature;BME280_humidity;BME280_pressure;Samples;Min_cycle;Max_cycle;Signal;HPM_P1;HPM_P2
2021/07/22 00:01:51;;;;;;;17.85;7.80;;;;;;;17.71;57.00;99388.00;125459;1100;103014;-76
2021/07/22 00:04:22;;;;;;;18.53;7.40;;;;;;;17.69;56.73;99395.38;125395;1100;103082;-76
2021/07/22 00:06:50;;;;;;;18.60;7.30;;;;;;;17.70;56.86;99389.00;125431;1098;103036;-75
2021/07/22 00:09:18;;;;;;;17.50;6.97;;;;;;;17.69;57.19;99390.83;125421;1100;102954;-75
2021/07/22 00:11:47;;;;;;;19.00;7.43;;;;;;;17.71;56.86;99386.14;125527;1098;102933;-75
2021/07/22 00:14:15;;;;;;;17.47;7.40;;;;;;;17.73;56.97;99396.74;125516;1099;103512;-77
2021/07/22 00:16:45;;;;;;;17.90;7.53;;;;;;;17.73;56.87;99391.36;125529;1098;103070;-76
2021/07/22 00:19:14;;;;;;;15.87;7.50;;;;;;;17.74;57.52;99389.53;125492;1100;102923;-78
2021/07/22 00:21:42;;;;;;;17.97;7.23;;;;;;;17.73;57.03;99395.91;125419;1098;102964;-77
2021/07/22 00:24:11;;;;;;;16.93;7.33;;;;;;;17.70;57.54;99389.00;125422;1098;103378;-78
2021/07/22 00:26:41;;;;;;;17.43;7.20;;;;;;;17.70;57.22;99391.69;125412;1098;103022;-78
2021/07/22 00:29:09;;;;;;;20.17;7.47;;;;;;;17.69;57.15;99390.83;125430;1098;103116;-76
2021/07/22 00:31:38;;;;;;;18.80;7.43;;;;;;;17.69;57.41;99384.62;125431;1098;103001;-79
2021/07/22 00:34:06;;;;;;;20.23;7.57;;;;;;;17.65;57.58;99381.36;125437;1100;103425;-78
2021/07/22 00:36:36;;;;;;;17.10;7.57;;;;;;;17.63;57.14;99383.35;125435;1098;102929;-77
2021/07/22 00:39:06;;;;;;;18.65;7.95;;;;;;;17.62;57.72;99392.42;125378;1099;102959;-76
2021/07/22 00:41:39;;;;;;;17.63;7.93;;;;;;;17.60;57.67;99382.81;125406;1100;103044;-76
2021/07/22 00:44:08;;;;;;;;;;;;;;;17.58;58.00;99385.64;125470;1098;102932;-77
2021/07/22 00:46:39;;;;;;;17.00;7.07;;;;;;;17.58;57.96;99395.56;125396;1098;103000;-79
2021/07/22 00:49:10;;;;;;;19.93;7.73;;;;;;;17.58;57.84;99387.50;125438;1100;104109;-78
2021/07/22 00:51:40;;;;;;;16.90;7.87;;;;;;;17.56;57.69;99387.63;125394;1100;103016;-76
2021/07/22 00:54:09;;;;;;;18.50;7.53;;;;;;;17.55;57.95;99389.48;125349;1099;103161;-76
2021/07/22 00:56:40;;;;;;;17.80;7.40;;;;;;;17.56;58.00;99387.63;125468;1098;102932;-76
2021/07/22 00:59:08;;;;;;;18.23;7.17;;;;;;;17.53;57.65;99386.09;125412;1100;102927;-76
2021/07/22 01:01:36;;;;;;;17.87;7.83;;;;;;;17.49;57.61;99390.08;125455;1100;102929;-76
2021/07/22 01:04:06;;;;;;;14.97;7.07;;;;;;;17.46;57.61;99386.85;125421;1100;103751;-78
2021/07/22 01:06:35;;;;;;;15.90;7.20;;;;;;;17.41;57.95;99382.77;125386;1098;102961;-77
2021/07/22 01:09:03;;;;;;;15.73;6.80;;;;;;;17.41;58.00;99384.59;125456;1098;102925;-78
2021/07/22 01:11:33;;;;;;;19.03;7.60;;;;;;;17.41;58.20;99384.59;125434;1098;102947;-80
2021/07/22 01:14:02;;;;;;;17.43;7.17;;;;;;;17.40;58.13;99382.89;125458;1098;103019;-78
2021/07/22 01:16:30;;;;;;;16.27;7.23;;;;;;;17.40;58.02;99382.89;125427;1100;103195;-76
2021/07/22 01:19:00;;;;;;;18.47;7.57;;;;;;;17.40;58.33;99373.00;125412;1099;103159;-77
2021/07/22 01:21:29;;;;;;;20.23;7.77;;;;;;;17.40;58.01;99383.75;125465;1100;103106;-77
2021/07/22 01:23:59;;;;;;;19.17;7.70;;;;;;;17.39;58.33;99381.20;125443;1100;103046;-77
2021/07/22 01:26:27;;;;;;;17.33;7.40;;;;;;;17.39;58.09;99381.20;125439;1100;103007;-77
2021/07/22 01:28:56;;;;;;;18.73;7.40;;;;;;;17.40;58.45;99373.00;125417;1098;103140;-77
2021/07/22 01:31:26;;;;;;;17.13;7.07;;;;;;;17.38;58.50;99374.98;125479;1098;103046;-78
2021/07/22 01:33:56;;;;;;;16.53;7.47;;;;;;;17.36;58.52;99376.98;125537;1099;103078;-78
2021/07/22 01:36:24;;;;;;;19.07;7.40;;;;;;;17.39;58.64;99383.89;125521;1098;103036;-76
2021/07/22 01:38:54;;;;;;;18.20;7.70;;;;;;;17.39;58.74;99379.38;125574;1100;103074;-78
2021/07/22 01:41:23;;;;;;;18.23;7.43;;;;;;;17.38;58.44;99379.50;125458;1098;103505;-78
2021/07/22 01:43:51;;;;;;;17.30;7.80;;;;;;;17.37;58.75;99384.05;125408;1099;103039;-76
2021/07/22 01:46:21;;;;;;;19.70;7.90;;;;;;;17.37;58.45;99384.05;125463;1098;103199;-76
2021/07/22 01:48:53;;;;;;;18.03;7.73;;;;;;;17.36;58.44;99381.49;125279;1098;103082;-76
2021/07/22 01:51:21;;;;;;;17.93;7.30;;;;;;;17.34;58.79;99378.10;125454;1100;103008;-76
2021/07/22 01:53:53;;;;;;;16.67;7.03;;;;;;;17.35;58.97;99377.97;125451;1100;103112;-76
2021/07/22 01:56:21;;;;;;;16.53;7.13;;;;;;;17.34;59.02;99378.10;125386;1098;103052;-75
2021/07/22 01:58:49;;;;;;;16.70;7.60;;;;;;;17.32;59.00;99380.95;125449;1100;103178;-77
2021/07/22 02:01:18;;;;;;;15.43;7.03;;;;;;;17.32;59.06;99382.81;125445;1100;103025;-77
2021/07/22 02:03:48;;;;;;;18.00;7.10;;;;;;;17.31;59.13;99379.26;125442;1098;102927;-77
2021/07/22 02:06:18;;;;;;;17.90;7.73;;;;;;;17.31;59.13;99381.95;126462;1098;103050;-75
2021/07/22 02:08:46;;;;;;;19.73;8.33;;;;;;;17.31;59.08;99376.57;125919;1098;103189;-76
2021/07/22 02:11:14;;;;;;;18.00;7.07;;;;;;;17.31;59.11;99379.26;125561;1100;102948;-77
2021/07/22 02:13:43;;;;;;;17.87;7.13;;;;;;;17.31;58.95;99379.26;125331;1098;103430;-77
2021/07/22 02:16:11;;;;;;;14.83;7.30;;;;;;;17.32;59.07;99377.44;125498;1098;103031;-76
2021/07/22 02:18:40;;;;;;;17.70;6.63;;;;;;;17.32;59.37;99377.44;125462;1100;103003;-76
2021/07/22 02:21:09;;;;;;;17.80;6.90;;;;;;;17.32;59.40;99382.81;125374;1100;102948;-76
2021/07/22 02:23:37;;;;;;;15.20;7.50;;;;;;;17.31;59.34;99384.64;125607;1098;103047;-76
2021/07/22 02:26:09;;;;;;;15.90;6.90;;;;;;;17.30;59.16;99384.80;125458;1100;103029;-75
2021/07/22 02:28:38;;;;;;;15.27;6.97;;;;;;;17.30;59.59;99384.80;125464;1099;103011;-75
2021/07/22 02:31:06;;;;;;;16.23;6.80;;;;;;;17.29;59.16;99388.48;125418;1099;103136;-75
2021/07/22 02:33:34;;;;;;;16.53;7.53;;;;;;;17.29;59.27;99393.86;125441;1100;102925;-76
2021/07/22 02:36:03;;;;;;;15.57;6.63;;;;;;;17.29;59.62;99389.31;125461;1098;103100;-75
2021/07/22 02:38:33;;;;;;;16.53;6.97;;;;;;;17.27;59.71;99388.61;125429;1100;103128;-76
2021/07/22 02:41:05;;;;;;;14.83;6.97;;;;;;;17.28;59.79;99392.99;125458;1099;103025;-76
2021/07/22 02:43:35;;;;;;;16.15;7.05;;;;;;;17.27;59.56;99391.30;125449;1100;102929;-75
2021/07/22 02:46:14;;;;;;;16.37;7.10;;;;;;;17.29;59.60;99399.23;125404;1100;103058;-76
2021/07/22 02:48:44;;;;;;;18.23;7.23;;;;;;;17.27;59.56;99391.30;125443;1100;103031;-75
2021/07/22 02:51:17;;;;;;;18.13;7.70;;;;;;;17.25;59.95;99391.45;125438;1098;102928;-77
2021/07/22 02:53:45;;;;;;;17.10;7.20;;;;;;;17.26;59.67;99392.29;125521;1100;103081;-75
2021/07/22 02:56:13;;;;;;;18.73;7.43;;;;;;;17.24;60.18;99394.28;125542;1100;103043;-76
2021/07/22 02:58:42;;;;;;;17.93;6.70;;;;;;;17.24;59.65;99407.72;125540;1098;103007;-75
2021/07/22 03:01:12;;;;;;;17.10;6.80;;;;;;;17.22;59.97;99397.13;125509;1098;102994;-75
2021/07/22 03:03:41;;;;;;;17.20;7.17;;;;;;;17.20;59.91;99399.11;125423;1100;102948;-75
2021/07/22 03:06:16;;;;;;;19.63;7.60;;;;;;;17.21;60.15;99403.50;125442;1100;102952;-75
2021/07/22 03:08:44;;;;;;;17.93;7.83;;;;;;;17.21;59.94;99405.32;125436;1100;102948;-74
2021/07/22 03:11:13;;;;;;;19.83;8.13;;;;;;;17.21;60.15;99400.81;125409;1098;103550;-74
2021/07/22 03:13:41;;;;;;;20.77;7.37;;;;;;;17.23;60.01;99395.27;125443;1100;103025;-74
2021/07/22 03:16:11;;;;;;;18.30;7.87;;;;;;;17.22;60.11;99404.33;125429;1100;102948;-74
2021/07/22 03:18:41;;;;;;;18.20;7.87;;;;;;;17.22;59.93;99409.70;125440;1098;103030;-74
2021/07/22 03:21:11;;;;;;;17.83;7.80;;;;;;;17.20;60.48;99401.80;125451;1100;103066;-74
2021/07/22 03:23:41;;;;;;;17.00;7.33;;;;;;;17.21;60.37;99399.95;125468;1099;102925;-76
2021/07/22 03:26:09;;;;;;;16.97;7.10;;;;;;;17.21;60.49;99405.32;125437;1098;103020;-77
2021/07/22 03:28:37;;;;;;;22.00;8.60;;;;;;;17.19;60.51;99408.17;125388;1098;103074;-77
2021/07/22 03:31:07;;;;;;;15.40;7.17;;;;;;;17.19;60.46;99399.24;125451;1099;102936;-73
2021/07/22 03:33:36;;;;;;;18.17;7.63;;;;;;;17.18;60.25;99393.03;125455;1098;103132;-76
2021/07/22 03:36:06;;;;;;;17.67;7.50;;;;;;;17.17;60.25;99406.60;125446;1100;103495;-76
2021/07/22 03:38:34;;;;;;;14.10;6.83;;;;;;;17.16;60.41;99396.84;125472;1100;103043;-75
2021/07/22 03:41:03;;;;;;;16.40;7.03;;;;;;;17.15;60.69;99398.70;125464;1098;103135;-76
2021/07/22 03:43:31;;;;;;;19.83;7.40;;;;;;;17.15;60.83;99401.39;125426;1100;103078;-76
2021/07/22 03:46:01;;;;;;;17.00;7.30;;;;;;;17.18;60.97;99403.79;125425;1100;103038;-76
2021/07/22 03:48:31;;;;;;;21.03;7.13;;;;;;;17.17;60.48;99404.78;125387;1100;102951;-76
2021/07/22 03:51:00;;;;;;;17.70;7.20;;;;;;;17.17;60.88;99402.09;125476;1098;103028;-76
2021/07/22 03:53:28;;;;;;;18.13;6.77;;;;;;;17.18;60.82;99408.30;125422;1095;102945;-75
2021/07/22 03:55:56;;;;;;;17.40;7.00;;;;;;;17.19;60.96;99404.62;125456;1099;102923;-75
2021/07/22 03:58:25;;;;;;;17.17;6.97;;;;;;;17.20;61.09;99404.48;125458;1098;102913;-73
2021/07/22 04:00:57;;;;;;;19.63;7.27;;;;;;;17.23;61.02;99406.02;125429;1100;102947;-75
2021/07/22 04:03:35;;;;;;;17.47;7.57;;;;;;;17.23;60.75;99409.58;125470;1098;103009;-75
2021/07/22 04:06:05;;;;;;;19.73;6.90;;;;;;;17.24;60.88;99410.41;125434;1100;103023;-79
2021/07/22 04:08:34;;;;;;;16.63;7.27;;;;;;;17.26;61.22;99411.11;125438;1098;103135;-76
2021/07/22 04:11:02;;;;;;;16.97;7.47;;;;;;;17.27;61.09;99410.12;125485;1100;103006;-75
2021/07/22 04:13:30;;;;;;;15.07;6.83;;;;;;;17.29;61.08;99407.30;125496;1097;103021;-75
2021/07/22 04:16:04;;;;;;;19.25;8.00;;;;;;;17.31;61.30;99413.38;125537;1098;103033;-79
2021/07/22 04:18:32;;;;;;;;;;;;;;;17.32;61.63;99405.15;125655;1100;103113;-76
2021/07/22 04:21:03;;;;;;;16.83;6.90;;;;;;;17.34;61.52;99405.85;125512;1098;102924;-74
2021/07/22 04:23:31;;;;;;;22.53;7.53;;;;;;;17.41;61.47;99409.65;125454;1100;103023;-75
2021/07/22 04:26:00;;;;;;;19.60;7.93;;;;;;;17.45;61.20;99409.36;125392;1099;103151;-75
2021/07/22 04:28:28;;;;;;;17.60;7.80;;;;;;;17.49;61.20;99406.21;125413;1098;103014;-75
2021/07/22 04:30:58;;;;;;;17.33;6.73;;;;;;;17.52;61.11;99405.92;125436;1098;103036;-76
2021/07/22 04:33:26;;;;;;;16.67;8.03;;;;;;;17.59;61.51;99400.78;125455;1099;103035;-77
2021/07/22 04:35:57;;;;;;;19.60;7.30;;;;;;;17.63;61.46;99404.88;125477;1100;103516;-76
2021/07/22 04:38:26;;;;;;;21.10;8.20;;;;;;;17.69;61.71;99406.97;125428;1100;103434;-83
2021/07/22 04:40:54;;;;;;;18.87;7.43;;;;;;;17.74;61.88;99409.20;125542;1100;103023;-82
2021/07/22 04:43:22;;;;;;;18.47;7.63;;;;;;;17.81;61.65;99404.92;125523;1098;103022;-85
2021/07/22 04:45:51;;;;;;;18.13;7.43;;;;;;;17.88;61.56;99407.01;125548;1100;103013;-80
2021/07/22 04:48:22;;;;;;;18.83;7.67;;;;;;;17.94;61.54;99403.72;125419;1098;103019;-77
2021/07/22 04:50:50;;;;;;;18.23;7.83;;;;;;;18.00;61.43;99409.36;125420;1098;102920;-78
2021/07/22 04:53:18;;;;;;;18.53;7.33;;;;;;;18.07;62.03;99401.55;125450;1100;102948;-76
2021/07/22 04:55:48;;;;;;;18.90;7.90;;;;;;;18.13;61.96;99402.78;125424;1100;102926;-76
2021/07/22 04:58:17;;;;;;;19.63;7.77;;;;;;;18.20;61.97;99406.56;125378;1099;102965;-76
2021/07/22 05:00:45;;;;;;;18.07;7.30;;;;;;;18.28;61.63;99403.09;125418;1100;102952;-78
2021/07/22 05:03:18;;;;;;;16.87;7.60;;;;;;;18.36;62.05;99407.70;125556;1098;103015;-82
2021/07/22 05:05:49;;;;;;;19.63;7.67;;;;;;;18.41;62.06;99413.47;125571;1098;102927;-80
2021/07/22 05:08:17;;;;;;;17.40;8.13;;;;;;;18.48;62.02;99411.86;125630;1098;103014;-75
2021/07/22 05:10:45;;;;;;;18.93;7.40;;;;;;;18.55;61.72;99406.69;125435;1100;103003;-79
2021/07/22 05:13:15;;;;;;;20.13;7.33;;;;;;;18.59;62.00;99410.77;125477;1098;103042;-78
2021/07/22 05:15:44;;;;;;;18.10;7.27;;;;;;;18.63;62.03;99405.94;125426;1100;103058;-76
2021/07/22 05:18:16;;;;;;;20.67;7.93;;;;;;;18.63;62.11;99414.84;125455;1098;103000;-74
2021/07/22 05:20:44;;;;;;;17.00;7.77;;;;;;;18.67;61.86;99416.23;125442;1098;103007;-76
2021/07/22 05:23:12;;;;;;;17.63;7.13;;;;;;;18.71;61.68;99412.23;125460;1100;103036;-76
2021/07/22 05:25:41;;;;;;;19.13;7.50;;;;;;;18.78;61.76;99408.91;125475;1098;103048;-77
2021/07/22 05:28:09;;;;;;;16.90;7.20;;;;;;;18.85;61.75;99418.06;125425;1100;103041;-79
2021/07/22 05:30:37;;;;;;;17.00;6.73;;;;;;;18.89;62.08;99425.67;125459;1098;102930;-76
2021/07/22 05:33:07;;;;;;;18.60;7.23;;;;;;;18.99;61.97;99405.90;125453;1099;103033;-77
2021/07/22 05:35:37;;;;;;;20.60;7.70;;;;;;;19.09;61.94;99411.17;125503;1098;102948;-75
2021/07/22 05:38:08;;;;;;;20.47;7.50;;;;;;;19.17;62.06;99419.33;125541;1100;102948;-77
2021/07/22 05:40:39;;;;;;;20.43;7.43;;;;;;;19.27;61.92;99417.38;125564;1100;103027;-77
2021/07/22 05:43:08;;;;;;;19.33;7.80;;;;;;;19.34;61.93;99420.27;125470;1100;103007;-78
2021/07/22 05:45:36;;;;;;;18.23;7.43;;;;;;;19.40;61.50;99416.07;125415;1098;102951;-77
2021/07/22 05:48:05;;;;;;;21.60;7.30;;;;;;;19.47;62.15;99419.83;125451;1098;103050;-76
2021/07/22 05:50:33;;;;;;;17.70;7.40;;;;;;;19.52;61.84;99413.97;125449;1100;103004;-77
2021/07/22 05:53:02;;;;;;;20.03;7.87;;;;;;;19.61;62.12;99423.77;125407;1099;103048;-77
2021/07/22 05:55:30;;;;;;;19.15;7.85;;;;;;;19.70;61.71;99428.20;125456;1100;103396;-77
2021/07/22 05:57:58;;;;;;;18.53;7.50;;;;;;;19.81;62.11;99428.92;125410;1098;102922;-76
2021/07/22 06:00:26;;;;;;;17.40;7.17;;;;;;;19.90;61.92;99434.21;125446;1099;103051;-76
2021/07/22 06:02:55;;;;;;;16.10;6.93;;;;;;;19.97;61.63;99426.30;125438;1100;103172;-76
2021/07/22 06:05:25;;;;;;;15.30;6.53;;;;;;;20.04;61.68;99421.10;125418;1098;103046;-76
2021/07/22 06:07:53;;;;;;;16.50;7.10;;;;;;;20.12;61.77;99421.13;125424;1100;102929;-75
2021/07/22 06:10:22;;;;;;;17.70;6.97;;;;;;;20.21;61.79;99421.98;125429;1098;103433;-79
2021/07/22 06:12:50;;;;;;;18.30;7.20;;;;;;;20.31;61.60;99419.13;125476;1098;103013;-75
2021/07/22 06:15:19;;;;;;;16.97;6.97;;;;;;;20.42;61.61;99417.95;125461;1098;103087;-78
2021/07/22 06:17:47;;;;;;;19.37;6.47;;;;;;;20.48;61.41;99425.39;125393;1098;103422;-78
2021/07/22 06:20:17;;;;;;;15.87;6.63;;;;;;;20.52;61.45;99414.10;125469;1098;103010;-78
2021/07/22 06:22:45;;;;;;;15.03;6.30;;;;;;;20.57;61.26;99413.59;125431;1100;102946;-77
2021/07/22 06:25:15;;;;;;;13.73;6.10;;;;;;;20.59;61.37;99416.11;125478;1100;103017;-70
2021/07/22 06:27:46;;;;;;;20.20;7.57;;;;;;;20.65;61.59;99419.00;125470;1098;103006;-78
2021/07/22 06:30:14;;;;;;;20.27;6.87;;;;;;;20.75;61.42;99415.29;125403;1100;102958;-75
2021/07/22 06:32:43;;;;;;;15.90;6.53;;;;;;;20.84;61.49;99416.16;125453;1097;103383;-70
2021/07/22 06:35:14;;;;;;;19.37;6.30;;;;;;;20.97;61.08;99421.90;125451;1099;103004;-70
2021/07/22 06:37:48;;;;;;;18.63;6.53;;;;;;;21.01;61.01;99411.58;125431;1098;103077;-72
2021/07/22 06:40:17;;;;;;;11.93;5.47;;;;;;;21.08;61.25;99417.99;125404;1098;103028;-73
2021/07/22 06:42:45;;;;;;;16.93;6.20;;;;;;;21.12;61.30;99408.52;125436;1098;103087;-73
2021/07/22 06:45:13;;;;;;;17.60;6.30;;;;;;;21.14;61.28;99411.04;125455;1100;102948;-72
2021/07/22 06:47:42;;;;;;;16.97;5.80;;;;;;;21.20;61.68;99413.89;125429;1098;103416;-73
2021/07/22 06:50:10;;;;;;;14.47;6.03;;;;;;;21.26;61.56;99410.50;125445;1099;103023;-72
2021/07/22 06:52:39;;;;;;;16.57;6.30;;;;;;;21.29;61.02;99405.76;125425;1100;102951;-72
2021/07/22 06:55:09;;;;;;;16.67;6.33;;;;;;;21.30;61.07;99407.45;125453;1099;102955;-73
2021/07/22 06:57:38;;;;;;;15.17;6.63;;;;;;;21.32;61.07;99410.83;125420;1098;102951;-72
2021/07/22 07:00:06;;;;;;;13.97;6.23;;;;;;;21.33;60.84;99407.11;125525;1098;103028;-73
2021/07/22 07:02:35;;;;;;;16.25;6.00;;;;;;;21.32;60.80;99406.27;125501;1098;102937;-73
2021/07/22 07:05:04;;;;;;;16.43;6.13;;;;;;;21.35;60.74;99405.94;125497;1099;102956;-73
2021/07/22 07:07:38;;;;;;;15.83;6.13;;;;;;;21.85;60.05;99405.75;125425;1100;103075;-73
2021/07/22 07:10:07;;;;;;;18.70;6.47;;;;;;;23.04;59.81;99396.42;125452;1098;102950;-72
2021/07/22 07:12:36;;;;;;;12.57;5.60;;;;;;;24.26;59.65;99398.90;125453;1100;102929;-73
2021/07/22 07:15:05;;;;;;;17.53;6.03;;;;;;;25.44;59.11;99400.31;125491;1099;103038;-72
2021/07/22 07:17:33;;;;;;;18.37;6.10;;;;;;;26.43;59.75;99398.19;125457;1098;102948;-72
2021/07/22 07:20:01;;;;;;;17.87;6.50;;;;;;;27.04;60.02;99390.88;125422;1098;103089;-72
2021/07/22 07:22:30;;;;;;;14.07;5.87;;;;;;;27.67;59.97;99388.64;125489;1097;102921;-72
2021/07/22 07:24:58;;;;;;;14.85;5.70;;;;;;;27.59;59.89;99396.02;125423;1098;103502;-72
2021/07/22 07:27:26;;;;;;;16.95;6.10;;;;;;;27.46;59.81;99404.25;125468;1098;103073;-73
2021/07/22 07:29:54;;;;;;;14.27;5.70;;;;;;;27.28;59.71;99396.73;125436;1098;103030;-71
2021/07/22 07:32:23;;;;;;;15.77;6.03;;;;;;;27.33;59.11;99403.22;125457;1098;103078;-71
2021/07/22 07:34:51;;;;;;;16.70;5.70;;;;;;;27.25;59.21;99399.89;125478;1100;102924;-72
2021/07/22 07:37:19;;;;;;;14.93;5.40;;;;;;;27.05;58.79;99398.02;125454;1098;102951;-73
2021/07/22 07:39:48;;;;;;;12.70;6.07;;;;;;;26.82;58.64;99401.17;125451;1098;102919;-72
2021/07/22 07:42:16;;;;;;;18.40;6.20;;;;;;;26.77;58.34;99395.47;125494;1100;102980;-72
2021/07/22 07:44:46;;;;;;;11.23;5.30;;;;;;;26.72;57.94;99405.12;125431;1100;103101;-71
2021/07/22 07:47:15;;;;;;;15.37;5.53;;;;;;;27.03;57.13;99400.11;125465;1100;103020;-74
2021/07/22 07:49:43;;;;;;;8.57;4.80;;;;;;;27.33;57.18;99395.03;125443;1099;103022;-75
2021/07/22 07:52:12;;;;;;;14.77;4.83;;;;;;;27.85;56.85;99401.60;125474;1100;103005;-73
2021/07/22 07:54:44;;;;;;;13.00;5.10;;;;;;;28.46;56.63;99392.03;125141;1098;103110;-73
2021/07/22 07:57:12;;;;;;;20.37;5.40;;;;;;;28.67;56.84;99395.47;125423;1098;102958;-72
2021/07/22 07:59:42;;;;;;;13.00;5.10;;;;;;;28.59;56.91;99396.56;125416;1097;102919;-72
2021/07/22 08:02:17;;;;;;;14.40;5.48;;;;;;;28.55;56.30;99395.32;125376;1098;102941;-73
2021/07/22 08:04:47;;;;;;;11.40;5.23;;;;;;;28.80;55.43;99387.16;125423;1099;102955;-73
2021/07/22 08:07:16;;;;;;;17.50;5.73;;;;;;;28.60;55.38;99395.50;125445;1098;102956;-73
2021/07/22 08:09:47;;;;;;;13.70;5.30;;;;;;;28.53;55.31;99395.56;125441;1098;103071;-74
2021/07/22 08:12:18;;;;;;;10.05;4.40;;;;;;;28.54;55.15;99390.91;125431;1099;102993;-75
2021/07/22 08:14:49;;;;;;;;;;;;;;;28.61;54.39;99396.35;125462;1098;103042;-73
2021/07/22 08:17:20;;;;;;;11.77;4.87;;;;;;;28.67;54.37;99390.81;125479;1100;102953;-73
2021/07/22 08:19:50;;;;;;;13.35;4.90;;;;;;;28.92;54.28;99398.23;125476;1098;103004;-75
2021/07/22 08:22:18;;;;;;;15.03;4.90;;;;;;;29.39;54.56;99399.68;125471;1100;103014;-74
2021/07/22 08:24:49;;;;;;;11.07;4.93;;;;;;;29.81;54.26;99388.03;125305;1098;103473;-73
2021/07/22 08:27:26;;;;;;;14.10;4.97;;;;;;;30.43;53.56;99390.56;125405;1099;103021;-73
2021/07/22 08:29:57;;;;;;;8.23;4.40;;;;;;;31.10;53.16;99388.64;125446;1099;103428;-76
2021/07/22 08:32:27;;;;;;;14.13;4.93;;;;;;;31.54;53.34;99380.00;125438;1099;103040;-75
2021/07/22 08:34:56;;;;;;;12.97;5.03;;;;;;;31.49;53.11;99385.38;125411;1100;103097;-74
2021/07/22 08:37:24;;;;;;;12.10;4.40;;;;;;;30.96;52.74;99388.05;125423;1100;102925;-73
2021/07/22 08:39:57;;;;;;;9.77;4.83;;;;;;;30.53;52.76;99391.91;125440;1098;103004;-75
2021/07/22 08:42:33;;;;;;;13.13;4.73;;;;;;;30.02;52.40;99391.36;125446;1098;103079;-75
2021/07/22 08:45:05;;;;;;;12.23;4.93;;;;;;;29.41;52.46;99395.66;125450;1098;103007;-75
2021/07/22 08:47:37;;;;;;;8.63;4.30;;;;;;;28.93;51.79;99385.38;125425;1099;103021;-74
2021/07/22 08:50:09;;;;;;;14.60;5.23;;;;;;;28.49;51.36;99388.85;125430;1100;103001;-73
2021/07/22 08:52:39;;;;;;;11.30;4.83;;;;;;;27.84;51.13;99398.05;125444;1098;102930;-73
2021/07/22 08:55:11;;;;;;;12.90;5.10;;;;;;;27.40;50.89;99395.00;125458;1098;102995;-73
2021/07/22 08:57:42;;;;;;;18.50;5.60;;;;;;;26.93;50.72;99391.50;125462;1100;103004;-74
2021/07/22 09:00:14;;;;;;;17.87;8.00;;;;;;;26.58;50.67;99393.37;125461;1100;103238;-73
2021/07/22 09:02:43;;;;;;;12.85;5.53;;;;;;;26.26;50.35;99395.84;125474;1100;102997;-73
2021/07/22 09:05:14;;;;;;;13.73;5.83;;;;;;;25.92;50.31;99394.88;125449;1097;103107;-72
2021/07/22 09:07:43;;;;;;;14.17;5.37;;;;;;;25.66;50.14;99392.89;125458;1098;102928;-73
2021/07/22 09:10:18;;;;;;;14.73;6.40;;;;;;;25.39;49.90;99398.17;125422;1098;102970;-74
2021/07/22 09:12:53;;;;;;;14.53;5.73;;;;;;;25.18;50.06;99402.64;125425;1100;102933;-72
2021/07/22 09:15:24;;;;;;;12.70;5.00;;;;;;;24.89;49.70;99395.52;125421;1098;102923;-74
2021/07/22 09:18:25;;;;;;;12.17;5.30;;;;;;;24.67;50.00;99384.65;125409;1100;103100;-73
2021/07/22 09:20:56;;;;;;;17.20;6.70;;;;;;;24.56;49.83;99390.61;125443;1098;102925;-75
2021/07/22 09:23:27;;;;;;;18.23;6.57;;;;;;;24.44;49.99;99396.59;125398;1099;102944;-71
2021/07/22 09:25:55;;;;;;;15.63;5.47;;;;;;;24.34;50.03;99396.06;125394;1098;102928;-71
2021/07/22 09:28:27;;;;;;;15.07;5.43;;;;;;;24.31;50.00;99394.55;125495;1100;102927;-71
2021/07/22 09:31:08;;;;;;;19.20;6.00;;;;;;;24.27;50.03;99387.82;125448;1100;102919;-72
2021/07/22 09:33:42;;;;;;;12.77;4.80;;;;;;;24.23;49.85;99391.98;125499;1098;102921;-72
2021/07/22 09:36:20;;;;;;;13.33;4.87;;;;;;;24.12;49.44;99387.88;125472;1099;103010;-72
2021/07/22 09:38:48;;;;;;;12.30;4.90;;;;;;;24.19;49.85;99387.97;125445;1098;103199;-72
2021/07/22 09:41:23;;;;;;;12.47;4.60;;;;;;;24.20;49.43;99393.20;125453;1098;102919;-70
2021/07/22 09:43:51;;;;;;;13.60;5.40;;;;;;;24.81;49.46;99382.91;125481;1098;103046;-72
2021/07/22 09:46:41;;;;;;;12.20;4.57;;;;;;;25.52;49.64;99387.37;125447;1098;102945;-71
2021/07/22 09:49:11;;;;;;;10.63;4.37;;;;;;;26.28;49.85;99374.67;125300;1098;103108;-71
2021/07/22 09:51:40;;;;;;;12.97;5.07;;;;;;;26.94;49.51;99377.66;125351;1098;103084;-70
2021/07/22 09:54:10;;;;;;;10.37;4.23;;;;;;;27.47;49.75;99378.61;125440;1098;102929;-73
2021/07/22 09:56:41;;;;;;;11.30;5.33;;;;;;;27.68;50.13;99374.78;125445;1098;102953;-72
2021/07/22 09:59:09;;;;;;;14.17;5.50;;;;;;;28.25;50.01;99376.81;125455;1100;102943;-72
2021/07/22 10:01:44;;;;;;;9.97;4.80;;;;;;;28.65;49.39;99375.70;125370;1098;103021;-72
2021/07/22 10:04:16;;;;;;;13.57;4.93;;;;;;;28.81;49.21;99372.41;125410;1098;103083;-72
2021/07/22 10:06:50;;;;;;;11.00;4.47;;;;;;;29.00;49.42;99374.34;125386;1098;103007;-73
2021/07/22 10:09:23;;;;;;;13.40;4.63;;;;;;;28.91;50.05;99368.33;125474;1100;102978;-73
2021/07/22 10:11:54;;;;;;;12.70;4.90;;;;;;;28.91;50.14;99379.28;125452;1098;103014;-73
2021/07/22 10:14:28;;;;;;;13.90;5.30;;;;;;;28.84;49.26;99375.77;125365;1098;102925;-74
2021/07/22 10:17:01;;;;;;;11.10;4.60;;;;;;;28.59;49.50;99382.05;125378;1098;102998;-74
2021/07/22 10:19:33;;;;;;;11.13;4.30;;;;;;;28.30;49.21;99378.91;125428;1098;102966;-73
2021/07/22 10:22:04;;;;;;;16.63;4.95;;;;;;;28.09;48.62;99375.41;125374;1098;103026;-73
2021/07/22 10:24:33;;;;;;;11.60;4.20;;;;;;;27.68;48.50;99376.66;125387;1098;103438;-71
2021/07/22 10:27:06;;;;;;;12.97;4.77;;;;;;;27.38;48.57;99369.80;125209;1098;102955;-74
2021/07/22 10:29:35;;;;;;;11.13;4.47;;;;;;;27.10;48.33;99370.92;125355;1100;103188;-72
2021/07/22 10:32:07;;;;;;;11.63;4.63;;;;;;;26.84;48.33;99366.33;125415;1098;103004;-72
2021/07/22 10:34:38;;;;;;;10.60;4.57;;;;;;;26.67;48.29;99368.61;125405;1098;103426;-75
2021/07/22 10:37:07;;;;;;;9.83;4.47;;;;;;;26.65;48.29;99363.38;125402;1099;102955;-72
2021/07/22 10:40:05;;;;;;;13.87;4.87;;;;;;;26.62;47.98;99363.80;125390;1098;103162;-73
2021/07/22 10:42:49;;;;;;;11.37;4.50;;;;;;;26.40;47.98;99361.25;125419;1099;102962;-73
2021/07/22 10:45:18;;;;;;;12.00;4.70;;;;;;;26.28;47.91;99365.66;125404;1098;103386;-73
2021/07/22 10:48:08;;;;;;;10.00;4.23;;;;;;;26.21;47.87;99365.63;125416;1098;103643;-72
2021/07/22 10:50:42;;;;;;;10.80;4.17;;;;;;;26.14;47.67;99357.45;125361;1098;103027;-75
2021/07/22 10:53:12;;;;;;;15.30;4.60;;;;;;;26.11;47.64;99362.42;125331;1098;102965;-73
2021/07/22 10:55:41;;;;;;;11.50;4.50;;;;;;;26.12;47.64;99356.78;125327;1098;103097;-72
2021/07/22 10:58:23;;;;;;;12.00;4.47;;;;;;;26.04;47.56;99354.24;125397;1098;103083;-74
2021/07/22 11:00:51;;;;;;;9.03;4.50;;;;;;;26.00;47.53;99355.70;125430;1098;103016;-73
2021/07/22 11:03:38;;;;;;;12.97;4.90;;;;;;;25.89;47.62;99348.11;125402;1098;103025;-73
2021/07/22 11:06:14;;;;;;;9.55;4.10;;;;;;;25.78;47.56;99357.73;125464;1098;103014;-72
2021/07/22 11:09:05;;;;;;;14.50;5.20;;;;;;;25.69;47.50;99360.63;125449;1098;103103;-72
2021/07/22 11:11:47;;;;;;;11.00;4.50;;;;;;;25.51;47.02;99354.91;125470;1098;102948;-73
2021/07/22 11:14:36;;;;;;;12.88;4.83;;;;;;;25.35;47.30;99356.88;125354;1100;102948;-72
2021/07/22 11:17:06;;;;;;;11.87;5.00;;;;;;;25.26;47.46;99352.67;125302;1099;103545;-74
2021/07/22 11:19:35;;;;;;;13.67;4.80;;;;;;;25.20;47.19;99354.29;125441;1098;102763;-72
2021/07/22 11:22:05;;;;;;;12.90;5.13;;;;;;;25.12;47.56;99349.86;125370;1098;103092;-72
2021/07/22 11:24:35;;;;;;;16.33;4.67;;;;;;;25.01;47.31;99355.84;125417;1097;102948;-72